sensor_id;sensor_type;location;lat;lon;timestamp;temperature;humidity
47521;DHT22;32291;52.010;4.446;2023-02-28T00:00:31;1.10;99.90
47521;DHT22;32291;52.010;4.446;2023-02-28T00:01:33;2.30;99.90
47521;DHT22;32291;52.010;4.446;2023-02-28T00:02:36;1.70;99.90
47521;DHT22;32291;52.010;4.446;2023-02-28T00:03:39;1.20;99.90
47521;DHT22;32291;52.010;4.446;2023-02-28T00:04:40;1.20;99.90
47521;DHT22;32291;52.010;4.446;2023-02-28T00:05:42;1.30;99.90
47521;DHT22;32291;52.010;4.446;2023-02-28T00:06:44;1.80;99.90
47521;DHT22;32291;52.010;4.446;2023-02-28T00:07:47;1.50;99.90
47521;DHT22;32291;52.010;4.446;2023-02-28T00:08:50;1.40;99.90
47521;DHT22;32291;52.010;4.446;2023-02-28T00:09:52;1.50;99.90
47521;DHT22;32291;52.010;4.446;2023-02-28T00:10:54;1.50;99.90
47521;DHT22;32291;52.010;4.446;2023-02-28T00:11:56;1.50;99.90
47521;DHT22;32291;52.010;4.446;2023-02-28T00:13:03;1.90;99.90
47521;DHT22;32291;52.010;4.446;2023-02-28T00:14:06;3.50;99.90
47521;DHT22;32291;52.010;4.446;2023-02-28T00:15:10;1.70;99.90
47521;DHT22;32291;52.010;4.446;2023-02-28T00:16:18;1.70;99.90
47521;DHT22;32291;52.010;4.446;2023-02-28T00:17:22;1.80;99.90
47521;DHT22;32291;52.010;4.446;2023-02-28T00:18:24;1.70;99.90
47521;DHT22;32291;52.010;4.446;2023-02-28T00:19:25;1.80;99.90
47521;DHT22;32291;52.010;4.446;2023-02-28T00:20:27;2.20;99.90
47521;DHT22;32291;52.010;4.446;2023-02-28T00:21:29;1.90;99.90
47521;DHT22;32291;52.010;4.446;2023-02-28T00:22:31;1.90;99.90
47521;DHT22;32291;52.010;4.446;2023-02-28T00:23:33;2.00;99.90
47521;DHT22;32291;52.010;4.446;2023-02-28T00:24:35;2.00;99.90
47521;DHT22;32291;52.010;4.446;2023-02-28T00:25:36;2.00;99.90
47521;DHT22;32291;52.010;4.446;2023-02-28T00:26:38;2.10;99.90
47521;DHT22;32291;52.010;4.446;2023-02-28T00:27:42;2.10;99.90
47521;DHT22;32291;52.010;4.446;2023-02-28T00:28:45;3.10;99.90
47521;DHT22;32291;52.010;4.446;2023-02-28T00:29:47;3.00;99.90
47521;DHT22;32291;52.010;4.446;2023-02-28T00:30:49;2.40;99.90
47521;DHT22;32291;52.010;4.446;2023-02-28T00:31:50;2.80;99.90
47521;DHT22;32291;52.010;4.446;2023-02-28T00:32:52;2.20;99.90
47521;DHT22;32291;52.010;4.446;2023-02-28T00:33:53;2.50;99.90
47521;DHT22;32291;52.010;4.446;2023-02-28T00:34:55;2.30;99.90
47521;DHT22;32291;52.010;4.446;2023-02-28T00:36:08;2.20;99.90
47521;DHT22;32291;52.010;4.446;2023-02-28T00:37:11;2.30;99.90
47521;DHT22;32291;52.010;4.446;2023-02-28T00:38:14;2.30;99.90
47521;DHT22;32291;52.010;4.446;2023-02-28T00:39:16;2.30;99.90
47521;DHT22;32291;52.010;4.446;2023-02-28T00:40:18;3.10;99.90
47521;DHT22;32291;52.010;4.446;2023-02-28T00:41:20;2.40;99.90
47521;DHT22;32291;52.010;4.446;2023-02-28T00:42:23;2.30;99.90
47521;DHT22;32291;52.010;4.446;2023-02-28T00:43:25;2.40;99.90
47521;DHT22;32291;52.010;4.446;2023-02-28T00:44:27;2.40;99.90
47521;DHT22;32291;52.010;4.446;2023-02-28T00:45:29;1.60;99.90
47521;DHT22;32291;52.010;4.446;2023-02-28T00:46:31;3.70;99.90
47521;DHT22;32291;52.010;4.446;2023-02-28T00:47:33;2.50;99.90
47521;DHT22;32291;52.010;4.446;2023-02-28T00:48:35;2.40;99.90
47521;DHT22;32291;52.010;4.446;2023-02-28T00:49:37;2.40;99.90
47521;DHT22;32291;52.010;4.446;2023-02-28T00:50:39;2.40;99.90
47521;DHT22;32291;52.010;4.446;2023-02-28T00:51:40;2.40;99.90
47521;DHT22;32291;52.010;4.446;2023-02-28T00:52:43;2.50;99.90
47521;DHT22;32291;52.010;4.446;2023-02-28T00:53:45;2.50;99.90
47521;DHT22;32291;52.010;4.446;2023-02-28T00:54:47;2.40;99.90
47521;DHT22;32291;52.010;4.446;2023-02-28T00:55:49;2.50;99.90
47521;DHT22;32291;52.010;4.446;2023-02-28T00:56:51;2.50;99.90
47521;DHT22;32291;52.010;4.446;2023-02-28T00:57:53;2.70;99.90
47521;DHT22;32291;52.010;4.446;2023-02-28T00:58:55;2.50;99.90
47521;DHT22;32291;52.010;4.446;2023-02-28T00:59:57;2.50;99.90
47521;DHT22;32291;52.010;4.446;2023-02-28T01:00:59;2.50;99.90
47521;DHT22;32291;52.010;4.446;2023-02-28T01:02:01;2.50;99.90
47521;DHT22;32291;52.010;4.446;2023-02-28T01:03:03;2.70;99.90
47521;DHT22;32291;52.010;4.446;2023-02-28T01:04:05;3.00;99.90
47521;DHT22;32291;52.010;4.446;2023-02-28T01:05:07;2.50;99.90
47521;DHT22;32291;52.010;4.446;2023-02-28T01:06:09;2.50;99.90
47521;DHT22;32291;52.010;4.446;2023-02-28T01:07:11;2.50;99.90
47521;DHT22;32291;52.010;4.446;2023-02-28T01:08:13;3.00;99.90
47521;DHT22;32291;52.010;4.446;2023-02-28T01:09:15;2.60;99.90
47521;DHT22;32291;52.010;4.446;2023-02-28T01:10:17;2.60;99.90
47521;DHT22;32291;52.010;4.446;2023-02-28T01:11:19;1.20;99.90
47521;DHT22;32291;52.010;4.446;2023-02-28T01:12:21;2.70;99.90
47521;DHT22;32291;52.010;4.446;2023-02-28T01:13:23;3.80;99.90
47521;DHT22;32291;52.010;4.446;2023-02-28T01:14:26;2.70;99.90
47521;DHT22;32291;52.010;4.446;2023-02-28T01:15:28;2.70;99.90
47521;DHT22;32291;52.010;4.446;2023-02-28T01:16:30;2.70;99.90
47521;DHT22;32291;52.010;4.446;2023-02-28T01:17:32;2.80;99.90
47521;DHT22;32291;52.010;4.446;2023-02-28T01:18:34;2.70;99.90
47521;DHT22;32291;52.010;4.446;2023-02-28T01:19:36;2.80;99.90
47521;DHT22;32291;52.010;4.446;2023-02-28T01:20:38;2.80;99.90
47521;DHT22;32291;52.010;4.446;2023-02-28T01:21:40;2.80;99.90
47521;DHT22;32291;52.010;4.446;2023-02-28T01:22:42;2.80;99.90
47521;DHT22;32291;52.010;4.446;2023-02-28T01:23:44;2.80;99.90
47521;DHT22;32291;52.010;4.446;2023-02-28T01:24:45;3.30;99.90
47521;DHT22;32291;52.010;4.446;2023-02-28T01:25:47;2.80;99.90
47521;DHT22;32291;52.010;4.446;2023-02-28T01:26:48;4.20;99.90
47521;DHT22;32291;52.010;4.446;2023-02-28T01:27:50;2.90;99.90
47521;DHT22;32291;52.010;4.446;2023-02-28T01:28:53;2.90;99.90
47521;DHT22;32291;52.010;4.446;2023-02-28T01:29:54;3.30;99.90
47521;DHT22;32291;52.010;4.446;2023-02-28T01:30:56;2.90;99.90
47521;DHT22;32291;52.010;4.446;2023-02-28T01:31:57;2.90;99.90
47521;DHT22;32291;52.010;4.446;2023-02-28T01:33:00;3.70;99.90
47521;DHT22;32291;52.010;4.446;2023-02-28T01:34:03;3.00;99.90
47521;DHT22;32291;52.010;4.446;2023-02-28T01:35:05;2.90;99.90
47521;DHT22;32291;52.010;4.446;2023-02-28T01:36:20;2.90;99.90
47521;DHT22;32291;52.010;4.446;2023-02-28T01:37:23;2.90;99.90
47521;DHT22;32291;52.010;4.446;2023-02-28T01:38:25;2.90;99.90
47521;DHT22;32291;52.010;4.446;2023-02-28T01:39:27;2.90;99.90
47521;DHT22;32291;52.010;4.446;2023-02-28T01:40:29;3.20;99.90
47521;DHT22;32291;52.010;4.446;2023-02-28T01:41:33;3.00;99.90
47521;DHT22;32291;52.010;4.446;2023-02-28T01:42:36;4.00;99.90
47521;DHT22;32291;52.010;4.446;2023-02-28T01:44:55;3.00;99.90
47521;DHT22;32291;52.010;4.446;2023-02-28T01:46:01;3.00;99.90
47521;DHT22;32291;52.010;4.446;2023-02-28T01:47:02;4.10;99.90
47521;DHT22;32291;52.010;4.446;2023-02-28T01:48:07;3.00;99.90
47521;DHT22;32291;52.010;4.446;2023-02-28T01:49:14;3.00;99.90
47521;DHT22;32291;52.010;4.446;2023-02-28T01:50:25;3.00;99.90
47521;DHT22;32291;52.010;4.446;2023-02-28T01:51:39;3.00;99.90
47521;DHT22;32291;52.010;4.446;2023-02-28T01:52:41;3.00;99.90
47521;DHT22;32291;52.010;4.446;2023-02-28T01:53:49;3.00;99.90
47521;DHT22;32291;52.010;4.446;2023-02-28T01:54:56;4.50;99.90
47521;DHT22;32291;52.010;4.446;2023-02-28T01:56:00;3.00;99.90
47521;DHT22;32291;52.010;4.446;2023-02-28T01:57:14;3.00;99.90
47521;DHT22;32291;52.010;4.446;2023-02-28T01:58:19;4.00;99.90
47521;DHT22;32291;52.010;4.446;2023-02-28T01:59:33;3.10;99.90
47521;DHT22;32291;52.010;4.446;2023-02-28T02:00:36;3.10;99.90
47521;DHT22;32291;52.010;4.446;2023-02-28T02:01:39;3.00;99.90
47521;DHT22;32291;52.010;4.446;2023-02-28T02:02:47;3.00;99.90
47521;DHT22;32291;52.010;4.446;2023-02-28T02:03:54;4.20;99.90
47521;DHT22;32291;52.010;4.446;2023-02-28T02:05:10;3.10;99.90
47521;DHT22;32291;52.010;4.446;2023-02-28T02:06:16;3.10;99.90
47521;DHT22;32291;52.010;4.446;2023-02-28T02:07:18;3.10;99.90
47521;DHT22;32291;52.010;4.446;2023-02-28T02:08:23;3.10;99.90
47521;DHT22;32291;52.010;4.446;2023-02-28T02:09:27;3.10;99.90
47521;DHT22;32291;52.010;4.446;2023-02-28T02:10:41;3.10;99.90
47521;DHT22;32291;52.010;4.446;2023-02-28T02:11:45;3.10;99.90
47521;DHT22;32291;52.010;4.446;2023-02-28T02:17:25;3.10;99.90
47521;DHT22;32291;52.010;4.446;2023-02-28T02:24:52;4.50;99.90
47521;DHT22;32291;52.010;4.446;2023-02-28T02:26:12;3.20;99.90
47521;DHT22;32291;52.010;4.446;2023-02-28T02:34:20;3.20;99.90
47521;DHT22;32291;52.010;4.446;2023-02-28T02:36:53;3.20;99.90
47521;DHT22;32291;52.010;4.446;2023-02-28T02:39:51;3.20;99.90
47521;DHT22;32291;52.010;4.446;2023-02-28T02:45:41;3.20;99.90
47521;DHT22;32291;52.010;4.446;2023-02-28T02:46:45;3.20;99.90
47521;DHT22;32291;52.010;4.446;2023-02-28T02:47:49;3.20;99.90
47521;DHT22;32291;52.010;4.446;2023-02-28T02:48:55;3.30;99.90
47521;DHT22;32291;52.010;4.446;2023-02-28T02:50:02;3.30;99.90
47521;DHT22;32291;52.010;4.446;2023-02-28T02:51:15;3.30;99.90
47521;DHT22;32291;52.010;4.446;2023-02-28T02:52:27;3.30;99.90
47521;DHT22;32291;52.010;4.446;2023-02-28T02:53:38;3.20;99.90
47521;DHT22;32291;52.010;4.446;2023-02-28T02:54:47;3.20;99.90
47521;DHT22;32291;52.010;4.446;2023-02-28T02:55:52;3.30;99.90
47521;DHT22;32291;52.010;4.446;2023-02-28T02:56:59;3.40;99.90
47521;DHT22;32291;52.010;4.446;2023-02-28T02:58:14;3.30;99.90
47521;DHT22;32291;52.010;4.446;2023-02-28T02:59:21;4.10;99.90
47521;DHT22;32291;52.010;4.446;2023-02-28T03:00:32;3.30;99.90
47521;DHT22;32291;52.010;4.446;2023-02-28T03:01:39;3.30;99.90
47521;DHT22;32291;52.010;4.446;2023-02-28T03:02:43;3.40;99.90
47521;DHT22;32291;52.010;4.446;2023-02-28T03:03:47;4.90;99.90
47521;DHT22;32291;52.010;4.446;2023-02-28T03:04:53;3.30;99.90
47521;DHT22;32291;52.010;4.446;2023-02-28T03:06:03;4.70;99.90
47521;DHT22;32291;52.010;4.446;2023-02-28T03:07:07;3.30;99.90
47521;DHT22;32291;52.010;4.446;2023-02-28T03:08:09;3.60;99.90
47521;DHT22;32291;52.010;4.446;2023-02-28T03:09:11;3.30;99.90
47521;DHT22;32291;52.010;4.446;2023-02-28T03:11:38;4.00;99.90
47521;DHT22;32291;52.010;4.446;2023-02-28T03:12:53;3.30;99.90
47521;DHT22;32291;52.010;4.446;2023-02-28T03:21:11;3.40;99.90
47521;DHT22;32291;52.010;4.446;2023-02-28T03:24:03;3.40;99.90
47521;DHT22;32291;52.010;4.446;2023-02-28T03:27:15;3.40;99.90
47521;DHT22;32291;52.010;4.446;2023-02-28T03:30:16;3.40;99.90
47521;DHT22;32291;52.010;4.446;2023-02-28T03:31:44;3.40;99.90
47521;DHT22;32291;52.010;4.446;2023-02-28T03:32:58;3.40;99.90
47521;DHT22;32291;52.010;4.446;2023-02-28T03:34:15;3.40;99.90
47521;DHT22;32291;52.010;4.446;2023-02-28T03:35:26;3.40;99.90
47521;DHT22;32291;52.010;4.446;2023-02-28T03:36:45;3.40;99.90
47521;DHT22;32291;52.010;4.446;2023-02-28T03:38:00;3.40;99.90
47521;DHT22;32291;52.010;4.446;2023-02-28T03:39:14;4.70;99.90
47521;DHT22;32291;52.010;4.446;2023-02-28T03:40:25;3.40;99.90
47521;DHT22;32291;52.010;4.446;2023-02-28T03:41:45;3.40;99.90
47521;DHT22;32291;52.010;4.446;2023-02-28T03:42:56;3.40;99.90
47521;DHT22;32291;52.010;4.446;2023-02-28T03:44:07;3.30;99.90
47521;DHT22;32291;52.010;4.446;2023-02-28T03:45:19;3.40;99.90
47521;DHT22;32291;52.010;4.446;2023-02-28T03:46:28;3.40;99.90
47521;DHT22;32291;52.010;4.446;2023-02-28T03:47:44;3.40;99.90
47521;DHT22;32291;52.010;4.446;2023-02-28T03:49:15;3.40;99.90
47521;DHT22;32291;52.010;4.446;2023-02-28T03:50:41;3.40;99.90
47521;DHT22;32291;52.010;4.446;2023-02-28T03:51:46;3.40;99.90
47521;DHT22;32291;52.010;4.446;2023-02-28T03:54:52;3.40;99.90
47521;DHT22;32291;52.010;4.446;2023-02-28T03:55:49;3.40;99.90
47521;DHT22;32291;52.010;4.446;2023-02-28T03:57:02;3.40;99.90
47521;DHT22;32291;52.010;4.446;2023-02-28T03:58:47;3.40;99.90
47521;DHT22;32291;52.010;4.446;2023-02-28T03:59:57;3.40;99.90
47521;DHT22;32291;52.010;4.446;2023-02-28T04:01:10;3.40;99.90
47521;DHT22;32291;52.010;4.446;2023-02-28T04:02:16;3.40;99.90
47521;DHT22;32291;52.010;4.446;2023-02-28T04:03:19;3.40;99.90
47521;DHT22;32291;52.010;4.446;2023-02-28T04:04:21;3.40;99.90
47521;DHT22;32291;52.010;4.446;2023-02-28T04:05:24;3.60;99.90
47521;DHT22;32291;52.010;4.446;2023-02-28T04:06:26;3.60;99.90
47521;DHT22;32291;52.010;4.446;2023-02-28T04:07:31;3.50;99.90
47521;DHT22;32291;52.010;4.446;2023-02-28T04:08:34;3.50;99.90
47521;DHT22;32291;52.010;4.446;2023-02-28T04:09:35;3.40;99.90
47521;DHT22;32291;52.010;4.446;2023-02-28T04:10:37;3.40;99.90
47521;DHT22;32291;52.010;4.446;2023-02-28T04:11:42;3.40;99.90
47521;DHT22;32291;52.010;4.446;2023-02-28T04:12:47;3.40;99.90
47521;DHT22;32291;52.010;4.446;2023-02-28T04:13:49;3.40;99.90
47521;DHT22;32291;52.010;4.446;2023-02-28T04:14:51;3.40;99.90
47521;DHT22;32291;52.010;4.446;2023-02-28T04:15:53;3.40;99.90
47521;DHT22;32291;52.010;4.446;2023-02-28T04:16:55;3.50;99.90
47521;DHT22;32291;52.010;4.446;2023-02-28T04:17:57;3.50;99.90
47521;DHT22;32291;52.010;4.446;2023-02-28T04:18:58;3.50;99.90
47521;DHT22;32291;52.010;4.446;2023-02-28T04:20:04;3.50;99.90
47521;DHT22;32291;52.010;4.446;2023-02-28T04:21:11;3.50;99.90
47521;DHT22;32291;52.010;4.446;2023-02-28T04:22:13;3.50;99.90
47521;DHT22;32291;52.010;4.446;2023-02-28T04:23:15;3.90;99.90
47521;DHT22;32291;52.010;4.446;2023-02-28T04:24:23;5.10;99.90
47521;DHT22;32291;52.010;4.446;2023-02-28T04:25:26;4.50;99.90
47521;DHT22;32291;52.010;4.446;2023-02-28T04:26:33;3.50;99.90
47521;DHT22;32291;52.010;4.446;2023-02-28T04:27:36;4.40;99.90
47521;DHT22;32291;52.010;4.446;2023-02-28T04:28:38;4.10;99.90
47521;DHT22;32291;52.010;4.446;2023-02-28T04:29:40;4.60;99.90
47521;DHT22;32291;52.010;4.446;2023-02-28T04:30:45;4.40;99.90
47521;DHT22;32291;52.010;4.446;2023-02-28T04:31:48;3.50;99.90
47521;DHT22;32291;52.010;4.446;2023-02-28T04:32:49;3.50;99.90
47521;DHT22;32291;52.010;4.446;2023-02-28T04:33:52;3.50;99.90
47521;DHT22;32291;52.010;4.446;2023-02-28T04:34:54;3.50;99.90
47521;DHT22;32291;52.010;4.446;2023-02-28T04:36:06;3.50;99.90
47521;DHT22;32291;52.010;4.446;2023-02-28T04:37:09;3.50;99.90
47521;DHT22;32291;52.010;4.446;2023-02-28T04:38:11;3.50;99.90
47521;DHT22;32291;52.010;4.446;2023-02-28T04:39:12;3.60;99.90
47521;DHT22;32291;52.010;4.446;2023-02-28T04:40:14;3.60;99.90
47521;DHT22;32291;52.010;4.446;2023-02-28T04:41:18;3.60;99.90
47521;DHT22;32291;52.010;4.446;2023-02-28T04:42:20;3.60;99.90
47521;DHT22;32291;52.010;4.446;2023-02-28T04:43:22;3.60;99.90
47521;DHT22;32291;52.010;4.446;2023-02-28T04:44:24;3.60;99.90
47521;DHT22;32291;52.010;4.446;2023-02-28T04:45:26;4.40;99.90
47521;DHT22;32291;52.010;4.446;2023-02-28T04:46:31;3.60;99.90
47521;DHT22;32291;52.010;4.446;2023-02-28T04:47:33;4.90;99.90
47521;DHT22;32291;52.010;4.446;2023-02-28T04:48:36;3.60;99.90
47521;DHT22;32291;52.010;4.446;2023-02-28T04:49:39;3.60;99.90
47521;DHT22;32291;52.010;4.446;2023-02-28T04:50:42;3.60;99.90
47521;DHT22;32291;52.010;4.446;2023-02-28T04:51:44;3.50;99.90
47521;DHT22;32291;52.010;4.446;2023-02-28T04:52:46;3.60;99.90
47521;DHT22;32291;52.010;4.446;2023-02-28T04:53:48;3.60;99.90
47521;DHT22;32291;52.010;4.446;2023-02-28T04:54:50;3.60;99.90
47521;DHT22;32291;52.010;4.446;2023-02-28T04:55:52;5.30;99.90
47521;DHT22;32291;52.010;4.446;2023-02-28T04:56:54;3.80;99.90
47521;DHT22;32291;52.010;4.446;2023-02-28T04:57:56;3.80;99.90
47521;DHT22;32291;52.010;4.446;2023-02-28T04:58:59;3.50;99.90
47521;DHT22;32291;52.010;4.446;2023-02-28T05:00:00;5.30;99.90
47521;DHT22;32291;52.010;4.446;2023-02-28T05:01:04;3.50;99.90
47521;DHT22;32291;52.010;4.446;2023-02-28T05:02:13;3.60;99.90
47521;DHT22;32291;52.010;4.446;2023-02-28T05:03:15;3.60;99.90
47521;DHT22;32291;52.010;4.446;2023-02-28T05:04:17;3.60;99.90
47521;DHT22;32291;52.010;4.446;2023-02-28T05:05:19;3.50;99.90
47521;DHT22;32291;52.010;4.446;2023-02-28T05:06:23;3.60;99.90
47521;DHT22;32291;52.010;4.446;2023-02-28T05:07:26;3.60;99.90
47521;DHT22;32291;52.010;4.446;2023-02-28T05:08:28;3.60;99.90
47521;DHT22;32291;52.010;4.446;2023-02-28T05:09:31;5.30;99.90
47521;DHT22;32291;52.010;4.446;2023-02-28T05:10:34;4.80;99.90
47521;DHT22;32291;52.010;4.446;2023-02-28T05:11:36;5.10;99.90
47521;DHT22;32291;52.010;4.446;2023-02-28T05:12:40;3.50;99.90
47521;DHT22;32291;52.010;4.446;2023-02-28T05:13:42;3.50;99.90
47521;DHT22;32291;52.010;4.446;2023-02-28T05:14:44;5.20;99.90
47521;DHT22;32291;52.010;4.446;2023-02-28T05:15:46;4.70;99.90
47521;DHT22;32291;52.010;4.446;2023-02-28T05:16:48;2.10;99.90
47521;DHT22;32291;52.010;4.446;2023-02-28T05:17:50;4.70;99.90
47521;DHT22;32291;52.010;4.446;2023-02-28T05:18:51;3.50;99.90
47521;DHT22;32291;52.010;4.446;2023-02-28T05:19:55;4.70;99.90
47521;DHT22;32291;52.010;4.446;2023-02-28T05:20:57;3.50;99.90
47521;DHT22;32291;52.010;4.446;2023-02-28T05:21:58;3.50;99.90
47521;DHT22;32291;52.010;4.446;2023-02-28T05:23:01;3.50;99.90
47521;DHT22;32291;52.010;4.446;2023-02-28T05:24:10;3.50;99.90
47521;DHT22;32291;52.010;4.446;2023-02-28T05:25:16;3.40;99.90
47521;DHT22;32291;52.010;4.446;2023-02-28T05:26:20;3.50;99.90
47521;DHT22;32291;52.010;4.446;2023-02-28T05:27:22;4.40;99.90
47521;DHT22;32291;52.010;4.446;2023-02-28T05:28:24;3.40;99.90
47521;DHT22;32291;52.010;4.446;2023-02-28T05:29:26;3.50;99.90
47521;DHT22;32291;52.010;4.446;2023-02-28T05:30:28;3.50;99.90
47521;DHT22;32291;52.010;4.446;2023-02-28T05:31:31;4.10;99.90
47521;DHT22;32291;52.010;4.446;2023-02-28T05:32:33;3.40;99.90
47521;DHT22;32291;52.010;4.446;2023-02-28T05:33:35;4.00;99.90
47521;DHT22;32291;52.010;4.446;2023-02-28T05:34:40;3.50;99.90
47521;DHT22;32291;52.010;4.446;2023-02-28T05:35:42;3.50;99.90
47521;DHT22;32291;52.010;4.446;2023-02-28T05:36:44;3.50;99.90
47521;DHT22;32291;52.010;4.446;2023-02-28T05:37:45;3.50;99.90
47521;DHT22;32291;52.010;4.446;2023-02-28T05:38:48;3.50;99.90
47521;DHT22;32291;52.010;4.446;2023-02-28T05:39:50;4.20;99.90
47521;DHT22;32291;52.010;4.446;2023-02-28T05:40:51;3.40;99.90
47521;DHT22;32291;52.010;4.446;2023-02-28T05:41:54;3.50;99.90
47521;DHT22;32291;52.010;4.446;2023-02-28T05:42:56;3.50;99.90
47521;DHT22;32291;52.010;4.446;2023-02-28T05:43:58;3.50;99.90
47521;DHT22;32291;52.010;4.446;2023-02-28T05:45:02;4.00;99.90
47521;DHT22;32291;52.010;4.446;2023-02-28T05:46:06;3.50;99.90
47521;DHT22;32291;52.010;4.446;2023-02-28T05:47:09;3.50;99.90
47521;DHT22;32291;52.010;4.446;2023-02-28T05:48:11;3.50;99.90
47521;DHT22;32291;52.010;4.446;2023-02-28T05:49:13;3.40;99.90
47521;DHT22;32291;52.010;4.446;2023-02-28T05:50:15;3.40;99.90
47521;DHT22;32291;52.010;4.446;2023-02-28T05:51:17;3.40;99.90
47521;DHT22;32291;52.010;4.446;2023-02-28T05:52:19;4.90;99.90
47521;DHT22;32291;52.010;4.446;2023-02-28T05:53:21;3.40;99.90
47521;DHT22;32291;52.010;4.446;2023-02-28T05:54:23;3.40;99.90
47521;DHT22;32291;52.010;4.446;2023-02-28T05:55:25;3.40;99.90
47521;DHT22;32291;52.010;4.446;2023-02-28T05:56:27;3.40;99.90
47521;DHT22;32291;52.010;4.446;2023-02-28T05:57:29;3.40;99.90
47521;DHT22;32291;52.010;4.446;2023-02-28T05:58:31;3.40;99.90
47521;DHT22;32291;52.010;4.446;2023-02-28T05:59:33;3.40;99.90
47521;DHT22;32291;52.010;4.446;2023-02-28T06:00:35;3.40;99.90
47521;DHT22;32291;52.010;4.446;2023-02-28T06:01:39;3.40;99.90
47521;DHT22;32291;52.010;4.446;2023-02-28T06:02:43;3.30;99.90
47521;DHT22;32291;52.010;4.446;2023-02-28T06:03:45;3.30;99.90
47521;DHT22;32291;52.010;4.446;2023-02-28T06:04:47;3.40;99.90
47521;DHT22;32291;52.010;4.446;2023-02-28T06:05:48;3.50;99.90
47521;DHT22;32291;52.010;4.446;2023-02-28T06:06:51;3.40;99.90
47521;DHT22;32291;52.010;4.446;2023-02-28T06:07:53;3.30;99.90
47521;DHT22;32291;52.010;4.446;2023-02-28T06:08:54;3.30;99.90
47521;DHT22;32291;52.010;4.446;2023-02-28T06:09:57;3.30;99.90
47521;DHT22;32291;52.010;4.446;2023-02-28T06:11:03;3.40;99.90
47521;DHT22;32291;52.010;4.446;2023-02-28T06:12:06;3.30;99.90
47521;DHT22;32291;52.010;4.446;2023-02-28T06:13:08;3.30;99.90
47521;DHT22;32291;52.010;4.446;2023-02-28T06:14:15;3.50;99.90
47521;DHT22;32291;52.010;4.446;2023-02-28T06:15:18;3.40;99.90
47521;DHT22;32291;52.010;4.446;2023-02-28T06:16:20;3.30;99.90
47521;DHT22;32291;52.010;4.446;2023-02-28T06:17:21;3.30;99.90
47521;DHT22;32291;52.010;4.446;2023-02-28T06:18:23;3.30;99.90
47521;DHT22;32291;52.010;4.446;2023-02-28T06:19:26;3.30;99.90
47521;DHT22;32291;52.010;4.446;2023-02-28T06:20:28;3.40;99.90
47521;DHT22;32291;52.010;4.446;2023-02-28T06:21:30;3.40;99.90
47521;DHT22;32291;52.010;4.446;2023-02-28T06:22:32;3.40;99.90
47521;DHT22;32291;52.010;4.446;2023-02-28T06:23:34;4.40;99.90
47521;DHT22;32291;52.010;4.446;2023-02-28T06:24:35;3.30;99.90
47521;DHT22;32291;52.010;4.446;2023-02-28T06:25:37;3.40;99.90
47521;DHT22;32291;52.010;4.446;2023-02-28T06:26:38;3.40;99.90
47521;DHT22;32291;52.010;4.446;2023-02-28T06:27:41;3.40;99.90
47521;DHT22;32291;52.010;4.446;2023-02-28T06:28:44;3.40;99.90
47521;DHT22;32291;52.010;4.446;2023-02-28T06:29:45;3.40;99.90
47521;DHT22;32291;52.010;4.446;2023-02-28T06:30:47;3.40;99.90
47521;DHT22;32291;52.010;4.446;2023-02-28T06:31:49;3.80;99.90
47521;DHT22;32291;52.010;4.446;2023-02-28T06:32:51;3.40;99.90
47521;DHT22;32291;52.010;4.446;2023-02-28T06:33:53;3.40;99.90
47521;DHT22;32291;52.010;4.446;2023-02-28T06:34:55;3.40;99.90
47521;DHT22;32291;52.010;4.446;2023-02-28T06:35:59;3.40;99.90
47521;DHT22;32291;52.010;4.446;2023-02-28T06:37:01;3.30;99.90
47521;DHT22;32291;52.010;4.446;2023-02-28T06:38:03;3.30;99.90
47521;DHT22;32291;52.010;4.446;2023-02-28T06:39:05;3.30;99.90
47521;DHT22;32291;52.010;4.446;2023-02-28T06:40:07;3.30;99.90
47521;DHT22;32291;52.010;4.446;2023-02-28T06:41:10;3.20;99.90
47521;DHT22;32291;52.010;4.446;2023-02-28T06:42:12;3.20;99.90
47521;DHT22;32291;52.010;4.446;2023-02-28T06:43:14;3.20;99.90
47521;DHT22;32291;52.010;4.446;2023-02-28T06:44:17;3.40;99.90
47521;DHT22;32291;52.010;4.446;2023-02-28T06:45:19;4.80;99.90
47521;DHT22;32291;52.010;4.446;2023-02-28T06:46:21;3.00;99.90
47521;DHT22;32291;52.010;4.446;2023-02-28T06:47:23;3.00;99.90
47521;DHT22;32291;52.010;4.446;2023-02-28T06:48:26;3.10;99.90
47521;DHT22;32291;52.010;4.446;2023-02-28T06:49:29;3.10;99.90
47521;DHT22;32291;52.010;4.446;2023-02-28T06:50:31;3.00;99.90
47521;DHT22;32291;52.010;4.446;2023-02-28T06:51:33;3.00;99.90
47521;DHT22;32291;52.010;4.446;2023-02-28T06:52:36;3.60;99.90
47521;DHT22;32291;52.010;4.446;2023-02-28T06:53:38;2.90;99.90
47521;DHT22;32291;52.010;4.446;2023-02-28T06:54:41;2.80;99.90
47521;DHT22;32291;52.010;4.446;2023-02-28T06:55:43;2.90;99.90
47521;DHT22;32291;52.010;4.446;2023-02-28T06:56:45;2.90;99.90
47521;DHT22;32291;52.010;4.446;2023-02-28T06:57:48;2.80;99.90
47521;DHT22;32291;52.010;4.446;2023-02-28T06:58:51;3.20;99.90
47521;DHT22;32291;52.010;4.446;2023-02-28T07:00:02;3.20;99.90
47521;DHT22;32291;52.010;4.446;2023-02-28T07:01:08;4.50;99.90
47521;DHT22;32291;52.010;4.446;2023-02-28T07:02:10;2.90;99.90
47521;DHT22;32291;52.010;4.446;2023-02-28T07:03:12;2.70;99.90
47521;DHT22;32291;52.010;4.446;2023-02-28T07:04:15;2.70;99.90
47521;DHT22;32291;52.010;4.446;2023-02-28T07:05:17;2.70;99.90
47521;DHT22;32291;52.010;4.446;2023-02-28T07:06:22;2.70;99.90
47521;DHT22;32291;52.010;4.446;2023-02-28T07:07:24;2.70;99.90
47521;DHT22;32291;52.010;4.446;2023-02-28T07:08:26;2.60;99.90
47521;DHT22;32291;52.010;4.446;2023-02-28T07:09:28;3.20;99.90
47521;DHT22;32291;52.010;4.446;2023-02-28T07:10:30;2.60;99.90
47521;DHT22;32291;52.010;4.446;2023-02-28T07:11:32;4.20;99.90
47521;DHT22;32291;52.010;4.446;2023-02-28T07:12:36;4.20;99.90
47521;DHT22;32291;52.010;4.446;2023-02-28T07:13:38;2.60;99.90
47521;DHT22;32291;52.010;4.446;2023-02-28T07:14:40;2.60;99.90
47521;DHT22;32291;52.010;4.446;2023-02-28T07:15:42;2.60;99.90
47521;DHT22;32291;52.010;4.446;2023-02-28T07:16:44;2.60;99.90
47521;DHT22;32291;52.010;4.446;2023-02-28T07:17:46;3.20;99.90
47521;DHT22;32291;52.010;4.446;2023-02-28T07:18:48;2.60;99.90
47521;DHT22;32291;52.010;4.446;2023-02-28T07:19:50;2.60;99.90
47521;DHT22;32291;52.010;4.446;2023-02-28T07:20:53;2.50;99.90
47521;DHT22;32291;52.010;4.446;2023-02-28T07:21:54;2.60;99.90
47521;DHT22;32291;52.010;4.446;2023-02-28T07:22:56;2.50;99.90
47521;DHT22;32291;52.010;4.446;2023-02-28T07:23:57;2.50;99.90
47521;DHT22;32291;52.010;4.446;2023-02-28T07:25:00;2.40;99.90
47521;DHT22;32291;52.010;4.446;2023-02-28T07:26:02;2.80;99.90
47521;DHT22;32291;52.010;4.446;2023-02-28T07:27:03;2.40;99.90
47521;DHT22;32291;52.010;4.446;2023-02-28T07:28:05;2.40;99.90
47521;DHT22;32291;52.010;4.446;2023-02-28T07:29:06;2.30;99.90
47521;DHT22;32291;52.010;4.446;2023-02-28T07:30:09;2.40;99.90
47521;DHT22;32291;52.010;4.446;2023-02-28T07:31:12;2.30;99.90
47521;DHT22;32291;52.010;4.446;2023-02-28T07:32:19;2.30;99.90
47521;DHT22;32291;52.010;4.446;2023-02-28T07:33:20;2.90;99.90
47521;DHT22;32291;52.010;4.446;2023-02-28T07:34:22;2.30;99.90